Disclaimer

Please do not use the information listed here in-flight or in-navigation, as they are not provided to us by the airports but are provided by volunteers, so they might be outdated.

Search


Regions


Airport information page

Radio informations:
Tower (TWR) - 118.9 MHz

Airport informations:
Latitude: 20° 36' 09.62" N
Longitude: 097° 27' 39.02" W
Elevation: 497 feet - 151 meters
Operating hours: Remarks
Operating agency: Civil government, landing fees and diplomatic clearance may be required
Timezone: UTC-6(-5DT) - First Sunday in April to the last Saturday in October
Fuel: Unknown fuel type or whether there is any fuel.

Runway information:
08/26 - 5906 x 148 feet< - >1800 x 45 meters

Recent METARs:
MMPA 162349Z 18004KT 7SM OVC030 19/13 A3010 RMK SLP187 52003 990 8/5//
MMPA 162349Z 18004KT 7SM OVC030 19/13 A3010 RMK SLP187 52003 990 8/5//
MMPA 162349Z 18004KT 7SM OVC030 19/13 A3010 RMK SLP187 52003 990 8/5//

Airport on the map: